sensor_id;sensor_type;location;lat;lon;timestamp;temperature;humidity
47434;SHT31;33184;48.774;8.918;2023-03-29T00:01:35;5.75;80.61
47434;SHT31;33184;48.774;8.918;2023-03-29T00:07:01;5.77;81.11
47434;SHT31;33184;48.774;8.918;2023-03-29T00:12:23;5.77;81.66
47434;SHT31;33184;48.774;8.918;2023-03-29T00:17:44;5.77;80.80
47434;SHT31;33184;48.774;8.918;2023-03-29T00:23:04;5.75;80.78
47434;SHT31;33184;48.774;8.918;2023-03-29T00:28:25;5.69;81.04
47434;SHT31;33184;48.774;8.918;2023-03-29T00:33:47;5.60;81.28
47434;SHT31;33184;48.774;8.918;2023-03-29T00:39:07;5.51;81.71
47434;SHT31;33184;48.774;8.918;2023-03-29T00:50:53;5.57;81.78
47434;SHT31;33184;48.774;8.918;2023-03-29T00:56:23;5.54;81.87
47434;SHT31;33184;48.774;8.918;2023-03-29T01:01:52;5.63;81.54
47434;SHT31;33184;48.774;8.918;2023-03-29T01:12:50;5.54;81.97
47434;SHT31;33184;48.774;8.918;2023-03-29T01:18:13;5.60;82.03
47434;SHT31;33184;48.774;8.918;2023-03-29T01:29:08;5.64;81.81
47434;SHT31;33184;48.774;8.918;2023-03-29T01:34:35;5.56;81.50
47434;SHT31;33184;48.774;8.918;2023-03-29T01:39:57;5.51;81.89
47434;SHT31;33184;48.774;8.918;2023-03-29T01:45:21;5.44;82.13
47434;SHT31;33184;48.774;8.918;2023-03-29T01:50:52;5.40;81.61
47434;SHT31;33184;48.774;8.918;2023-03-29T01:56:17;5.44;81.84
47434;SHT31;33184;48.774;8.918;2023-03-29T02:01:46;5.42;81.39
47434;SHT31;33184;48.774;8.918;2023-03-29T02:07:08;5.37;80.90
47434;SHT31;33184;48.774;8.918;2023-03-29T02:12:29;5.36;81.22
47434;SHT31;33184;48.774;8.918;2023-03-29T02:17:50;5.27;80.92
47434;SHT31;33184;48.774;8.918;2023-03-29T02:23:30;5.22;80.89
47434;SHT31;33184;48.774;8.918;2023-03-29T02:28:53;5.24;80.58
47434;SHT31;33184;48.774;8.918;2023-03-29T02:34:28;5.24;80.03
47434;SHT31;33184;48.774;8.918;2023-03-29T02:39:50;5.26;79.26
47434;SHT31;33184;48.774;8.918;2023-03-29T02:45:13;5.29;77.91
47434;SHT31;33184;48.774;8.918;2023-03-29T02:50:37;5.26;77.23
47434;SHT31;33184;48.774;8.918;2023-03-29T02:55:58;5.22;77.26
47434;SHT31;33184;48.774;8.918;2023-03-29T03:01:21;5.27;76.65
47434;SHT31;33184;48.774;8.918;2023-03-29T03:06:43;5.24;75.85
47434;SHT31;33184;48.774;8.918;2023-03-29T03:12:04;5.12;76.47
47434;SHT31;33184;48.774;8.918;2023-03-29T03:17:25;5.12;76.40
47434;SHT31;33184;48.774;8.918;2023-03-29T03:22:46;5.43;75.38
47434;SHT31;33184;48.774;8.918;2023-03-29T03:28:08;5.50;74.98
47434;SHT31;33184;48.774;8.918;2023-03-29T03:33:28;5.57;74.65
47434;SHT31;33184;48.774;8.918;2023-03-29T03:39:18;5.70;74.18
47434;SHT31;33184;48.774;8.918;2023-03-29T03:44:39;5.81;73.74
47434;SHT31;33184;48.774;8.918;2023-03-29T03:50:17;5.94;73.36
47434;SHT31;33184;48.774;8.918;2023-03-29T03:55:38;6.01;72.63
47434;SHT31;33184;48.774;8.918;2023-03-29T04:01:05;6.16;72.18
47434;SHT31;33184;48.774;8.918;2023-03-29T04:06:36;6.24;71.39
47434;SHT31;33184;48.774;8.918;2023-03-29T04:12:15;6.19;71.60
47434;SHT31;33184;48.774;8.918;2023-03-29T04:17:36;6.15;71.91
47434;SHT31;33184;48.774;8.918;2023-03-29T04:23:26;6.02;73.20
47434;SHT31;33184;48.774;8.918;2023-03-29T04:28:47;5.88;73.30
47434;SHT31;33184;48.774;8.918;2023-03-29T04:34:13;5.94;73.18
47434;SHT31;33184;48.774;8.918;2023-03-29T04:39:36;5.97;73.06
47434;SHT31;33184;48.774;8.918;2023-03-29T04:44:58;6.11;72.90
47434;SHT31;33184;48.774;8.918;2023-03-29T04:50:35;6.05;73.09
47434;SHT31;33184;48.774;8.918;2023-03-29T04:55:56;6.06;73.48
47434;SHT31;33184;48.774;8.918;2023-03-29T05:01:38;6.29;72.86
47434;SHT31;33184;48.774;8.918;2023-03-29T05:06:59;6.30;73.39
47434;SHT31;33184;48.774;8.918;2023-03-29T05:12:22;6.25;73.29
47434;SHT31;33184;48.774;8.918;2023-03-29T05:17:47;6.35;74.40
47434;SHT31;33184;48.774;8.918;2023-03-29T05:23:09;6.32;73.90
47434;SHT31;33184;48.774;8.918;2023-03-29T05:28:58;6.40;73.12
47434;SHT31;33184;48.774;8.918;2023-03-29T05:34:19;6.42;73.26
47434;SHT31;33184;48.774;8.918;2023-03-29T05:39:44;6.43;72.83
47434;SHT31;33184;48.774;8.918;2023-03-29T05:45:06;6.48;72.29
47434;SHT31;33184;48.774;8.918;2023-03-29T05:50:27;6.56;72.38
47434;SHT31;33184;48.774;8.918;2023-03-29T05:55:49;6.59;71.82
47434;SHT31;33184;48.774;8.918;2023-03-29T06:01:12;6.76;71.00
47434;SHT31;33184;48.774;8.918;2023-03-29T06:06:55;6.81;70.76
47434;SHT31;33184;48.774;8.918;2023-03-29T06:12:15;6.93;69.76
47434;SHT31;33184;48.774;8.918;2023-03-29T06:17:48;7.01;70.08
47434;SHT31;33184;48.774;8.918;2023-03-29T06:23:09;7.15;68.95
47434;SHT31;33184;48.774;8.918;2023-03-29T06:28:30;7.52;70.39
47434;SHT31;33184;48.774;8.918;2023-03-29T06:33:52;7.49;69.15
47434;SHT31;33184;48.774;8.918;2023-03-29T06:39:37;7.48;69.13
47434;SHT31;33184;48.774;8.918;2023-03-29T06:45:16;7.45;69.21
47434;SHT31;33184;48.774;8.918;2023-03-29T06:50:41;7.48;69.09
47434;SHT31;33184;48.774;8.918;2023-03-29T06:56:04;7.54;69.61
47434;SHT31;33184;48.774;8.918;2023-03-29T07:01:31;7.62;70.33
47434;SHT31;33184;48.774;8.918;2023-03-29T07:06:59;7.78;70.16
47434;SHT31;33184;48.774;8.918;2023-03-29T07:12:26;7.92;69.92
47434;SHT31;33184;48.774;8.918;2023-03-29T07:17:52;8.12;70.32
47434;SHT31;33184;48.774;8.918;2023-03-29T07:23:13;8.30;69.05
47434;SHT31;33184;48.774;8.918;2023-03-29T07:28:34;8.40;69.49
47434;SHT31;33184;48.774;8.918;2023-03-29T07:33:56;8.38;70.16
47434;SHT31;33184;48.774;8.918;2023-03-29T07:39:18;8.44;69.45
47434;SHT31;33184;48.774;8.918;2023-03-29T07:44:57;8.55;68.94
47434;SHT31;33184;48.774;8.918;2023-03-29T07:50:22;8.74;68.84
47434;SHT31;33184;48.774;8.918;2023-03-29T07:55:43;8.87;68.87
47434;SHT31;33184;48.774;8.918;2023-03-29T08:01:41;8.93;68.57
47434;SHT31;33184;48.774;8.918;2023-03-29T08:07:34;9.06;68.63
47434;SHT31;33184;48.774;8.918;2023-03-29T08:12:55;9.18;67.94
47434;SHT31;33184;48.774;8.918;2023-03-29T08:18:25;9.26;67.27
47434;SHT31;33184;48.774;8.918;2023-03-29T08:23:46;9.36;66.77
47434;SHT31;33184;48.774;8.918;2023-03-29T08:29:11;9.54;67.34
47434;SHT31;33184;48.774;8.918;2023-03-29T08:34:32;9.63;66.44
47434;SHT31;33184;48.774;8.918;2023-03-29T08:40:29;9.77;67.07
47434;SHT31;33184;48.774;8.918;2023-03-29T08:52:38;9.93;66.42
47434;SHT31;33184;48.774;8.918;2023-03-29T08:58:19;10.05;65.95
47434;SHT31;33184;48.774;8.918;2023-03-29T09:03:47;10.21;65.90
47434;SHT31;33184;48.774;8.918;2023-03-29T09:09:21;10.41;65.40
47434;SHT31;33184;48.774;8.918;2023-03-29T09:15:08;10.53;64.92
47434;SHT31;33184;48.774;8.918;2023-03-29T09:21:13;10.75;64.81
47434;SHT31;33184;48.774;8.918;2023-03-29T09:26:43;11.16;63.10
47434;SHT31;33184;48.774;8.918;2023-03-29T09:32:22;11.35;60.30
47434;SHT31;33184;48.774;8.918;2023-03-29T09:37:53;11.50;60.18
47434;SHT31;33184;48.774;8.918;2023-03-29T09:43:18;11.79;59.43
47434;SHT31;33184;48.774;8.918;2023-03-29T09:48:43;12.05;58.63
47434;SHT31;33184;48.774;8.918;2023-03-29T09:54:05;12.00;57.75
47434;SHT31;33184;48.774;8.918;2023-03-29T09:59:50;12.13;57.74
47434;SHT31;33184;48.774;8.918;2023-03-29T10:05:15;12.18;57.81
47434;SHT31;33184;48.774;8.918;2023-03-29T10:10:36;12.18;55.75
47434;SHT31;33184;48.774;8.918;2023-03-29T10:16:07;12.49;56.14
47434;SHT31;33184;48.774;8.918;2023-03-29T10:21:28;12.88;55.67
47434;SHT31;33184;48.774;8.918;2023-03-29T10:26:53;13.24;53.46
47434;SHT31;33184;48.774;8.918;2023-03-29T10:32:21;13.69;53.28
47434;SHT31;33184;48.774;8.918;2023-03-29T10:37:44;13.72;50.88
47434;SHT31;33184;48.774;8.918;2023-03-29T10:43:32;14.32;52.32
47434;SHT31;33184;48.774;8.918;2023-03-29T10:49:04;14.42;49.69
47434;SHT31;33184;48.774;8.918;2023-03-29T10:54:34;14.40;49.38
47434;SHT31;33184;48.774;8.918;2023-03-29T11:05:48;14.89;50.27
47434;SHT31;33184;48.774;8.918;2023-03-29T11:17:11;14.99;48.76
47434;SHT31;33184;48.774;8.918;2023-03-29T11:22:53;15.00;49.47
47434;SHT31;33184;48.774;8.918;2023-03-29T11:34:13;15.17;46.26
47434;SHT31;33184;48.774;8.918;2023-03-29T11:45:44;15.40;44.13
47434;SHT31;33184;48.774;8.918;2023-03-29T11:51:27;15.17;43.31
47434;SHT31;33184;48.774;8.918;2023-03-29T11:56:59;14.98;43.96
47434;SHT31;33184;48.774;8.918;2023-03-29T12:02:28;14.57;45.13
47434;SHT31;33184;48.774;8.918;2023-03-29T12:08:01;14.52;45.66
47434;SHT31;33184;48.774;8.918;2023-03-29T12:13:27;14.52;45.61
47434;SHT31;33184;48.774;8.918;2023-03-29T12:18:54;14.57;45.67
47434;SHT31;33184;48.774;8.918;2023-03-29T12:24:16;14.58;45.14
47434;SHT31;33184;48.774;8.918;2023-03-29T12:42:20;14.55;46.31
47434;SHT31;33184;48.774;8.918;2023-03-29T12:47:59;14.54;47.75
47434;SHT31;33184;48.774;8.918;2023-03-29T12:53:26;14.41;49.95
47434;SHT31;33184;48.774;8.918;2023-03-29T13:04:18;14.10;50.18
47434;SHT31;33184;48.774;8.918;2023-03-29T13:10:06;13.91;53.95
47434;SHT31;33184;48.774;8.918;2023-03-29T13:15:32;13.53;57.01
47434;SHT31;33184;48.774;8.918;2023-03-29T13:38:45;13.53;58.79
47434;SHT31;33184;48.774;8.918;2023-03-29T13:44:42;13.43;59.51
47434;SHT31;33184;48.774;8.918;2023-03-29T13:50:05;13.49;59.37
47434;SHT31;33184;48.774;8.918;2023-03-29T13:55:42;13.62;60.43
47434;SHT31;33184;48.774;8.918;2023-03-29T14:01:22;13.70;61.26
47434;SHT31;33184;48.774;8.918;2023-03-29T14:06:49;13.80;59.98
47434;SHT31;33184;48.774;8.918;2023-03-29T14:12:13;13.86;61.31
47434;SHT31;33184;48.774;8.918;2023-03-29T14:17:35;14.18;61.14
47434;SHT31;33184;48.774;8.918;2023-03-29T14:22:56;14.48;58.01
47434;SHT31;33184;48.774;8.918;2023-03-29T14:28:22;14.58;58.31
47434;SHT31;33184;48.774;8.918;2023-03-29T14:33:43;15.12;56.34
47434;SHT31;33184;48.774;8.918;2023-03-29T14:44:33;14.85;56.86
47434;SHT31;33184;48.774;8.918;2023-03-29T14:49:54;14.92;56.53
47434;SHT31;33184;48.774;8.918;2023-03-29T14:55:18;14.79;57.24
47434;SHT31;33184;48.774;8.918;2023-03-29T15:00:42;14.72;57.21
47434;SHT31;33184;48.774;8.918;2023-03-29T15:06:03;14.88;56.64
47434;SHT31;33184;48.774;8.918;2023-03-29T15:11:25;15.60;52.47
47434;SHT31;33184;48.774;8.918;2023-03-29T15:16:49;16.12;51.52
47434;SHT31;33184;48.774;8.918;2023-03-29T15:22:10;16.63;51.01
47434;SHT31;33184;48.774;8.918;2023-03-29T15:27:39;16.49;48.48
47434;SHT31;33184;48.774;8.918;2023-03-29T15:33:17;16.74;49.76
47434;SHT31;33184;48.774;8.918;2023-03-29T15:38:40;17.07;46.76
47434;SHT31;33184;48.774;8.918;2023-03-29T15:44:01;16.89;48.85
47434;SHT31;33184;48.774;8.918;2023-03-29T15:49:22;16.51;52.86
47434;SHT31;33184;48.774;8.918;2023-03-29T15:54:42;16.29;54.20
47434;SHT31;33184;48.774;8.918;2023-03-29T16:00:05;16.10;55.34
47434;SHT31;33184;48.774;8.918;2023-03-29T16:05:32;16.01;55.35
47434;SHT31;33184;48.774;8.918;2023-03-29T16:10:53;15.94;53.51
47434;SHT31;33184;48.774;8.918;2023-03-29T16:16:13;15.94;52.50
47434;SHT31;33184;48.774;8.918;2023-03-29T16:21:34;15.94;52.82
47434;SHT31;33184;48.774;8.918;2023-03-29T16:26:57;15.91;52.13
47434;SHT31;33184;48.774;8.918;2023-03-29T16:32:18;15.85;51.34
47434;SHT31;33184;48.774;8.918;2023-03-29T16:37:38;15.80;49.02
47434;SHT31;33184;48.774;8.918;2023-03-29T16:42:59;15.68;49.64
47434;SHT31;33184;48.774;8.918;2023-03-29T16:48:19;15.54;49.40
47434;SHT31;33184;48.774;8.918;2023-03-29T16:53:40;15.46;48.83
47434;SHT31;33184;48.774;8.918;2023-03-29T16:59:01;15.39;48.87
47434;SHT31;33184;48.774;8.918;2023-03-29T17:04:22;15.30;50.03
47434;SHT31;33184;48.774;8.918;2023-03-29T17:09:42;15.10;51.13
47434;SHT31;33184;48.774;8.918;2023-03-29T17:15:06;14.99;51.47
47434;SHT31;33184;48.774;8.918;2023-03-29T17:20:27;14.92;53.47
47434;SHT31;33184;48.774;8.918;2023-03-29T17:25:47;14.76;55.26
47434;SHT31;33184;48.774;8.918;2023-03-29T17:31:08;14.61;56.27
47434;SHT31;33184;48.774;8.918;2023-03-29T17:36:29;14.54;56.00
47434;SHT31;33184;48.774;8.918;2023-03-29T17:41:52;14.44;55.57
47434;SHT31;33184;48.774;8.918;2023-03-29T17:47:13;14.28;56.40
47434;SHT31;33184;48.774;8.918;2023-03-29T17:52:34;14.17;57.30
47434;SHT31;33184;48.774;8.918;2023-03-29T17:57:55;14.06;58.43
47434;SHT31;33184;48.774;8.918;2023-03-29T18:03:15;13.97;57.77
47434;SHT31;33184;48.774;8.918;2023-03-29T18:08:36;13.91;58.86
47434;SHT31;33184;48.774;8.918;2023-03-29T18:13:58;13.93;57.68
47434;SHT31;33184;48.774;8.918;2023-03-29T18:19:19;13.90;58.52
47434;SHT31;33184;48.774;8.918;2023-03-29T18:24:40;13.82;58.66
47434;SHT31;33184;48.774;8.918;2023-03-29T18:30:01;13.77;58.71
47434;SHT31;33184;48.774;8.918;2023-03-29T18:35:21;13.70;58.88
47434;SHT31;33184;48.774;8.918;2023-03-29T18:40:42;13.67;58.11
47434;SHT31;33184;48.774;8.918;2023-03-29T18:46:03;13.58;58.97
47434;SHT31;33184;48.774;8.918;2023-03-29T18:51:24;13.53;58.24
47434;SHT31;33184;48.774;8.918;2023-03-29T18:56:48;13.50;58.20
47434;SHT31;33184;48.774;8.918;2023-03-29T19:02:08;13.52;58.24
47434;SHT31;33184;48.774;8.918;2023-03-29T19:07:29;13.55;57.43
47434;SHT31;33184;48.774;8.918;2023-03-29T19:12:53;13.63;56.72
47434;SHT31;33184;48.774;8.918;2023-03-29T19:18:13;13.65;56.65
47434;SHT31;33184;48.774;8.918;2023-03-29T19:23:34;13.66;55.83
47434;SHT31;33184;48.774;8.918;2023-03-29T19:28:55;13.69;55.97
47434;SHT31;33184;48.774;8.918;2023-03-29T19:34:17;13.60;56.43
47434;SHT31;33184;48.774;8.918;2023-03-29T19:39:40;13.48;56.84
47434;SHT31;33184;48.774;8.918;2023-03-29T19:45:01;13.39;57.47
47434;SHT31;33184;48.774;8.918;2023-03-29T19:50:23;13.26;57.79
47434;SHT31;33184;48.774;8.918;2023-03-29T19:55:45;13.15;58.56
47434;SHT31;33184;48.774;8.918;2023-03-29T20:01:06;13.19;57.95
47434;SHT31;33184;48.774;8.918;2023-03-29T20:06:26;13.24;57.51
47434;SHT31;33184;48.774;8.918;2023-03-29T20:11:47;13.21;57.72
47434;SHT31;33184;48.774;8.918;2023-03-29T20:17:10;13.25;57.48
47434;SHT31;33184;48.774;8.918;2023-03-29T20:22:32;13.26;56.78
47434;SHT31;33184;48.774;8.918;2023-03-29T20:27:52;13.31;56.36
47434;SHT31;33184;48.774;8.918;2023-03-29T20:33:13;13.25;56.46
47434;SHT31;33184;48.774;8.918;2023-03-29T20:38:34;13.25;56.22
47434;SHT31;33184;48.774;8.918;2023-03-29T20:43:55;13.22;56.31
47434;SHT31;33184;48.774;8.918;2023-03-29T20:49:19;13.08;57.05
47434;SHT31;33184;48.774;8.918;2023-03-29T20:54:46;12.95;57.70
47434;SHT31;33184;48.774;8.918;2023-03-29T21:00:07;12.84;57.94
47434;SHT31;33184;48.774;8.918;2023-03-29T21:05:32;12.75;58.23
47434;SHT31;33184;48.774;8.918;2023-03-29T21:10:52;12.83;57.77
47434;SHT31;33184;48.774;8.918;2023-03-29T21:16:13;12.81;57.13
47434;SHT31;33184;48.774;8.918;2023-03-29T21:21:34;12.84;57.17
47434;SHT31;33184;48.774;8.918;2023-03-29T21:26:55;12.80;57.39
47434;SHT31;33184;48.774;8.918;2023-03-29T21:32:15;12.73;57.64
47434;SHT31;33184;48.774;8.918;2023-03-29T21:37:36;12.68;57.84
47434;SHT31;33184;48.774;8.918;2023-03-29T21:42:57;12.65;58.08
47434;SHT31;33184;48.774;8.918;2023-03-29T21:48:19;12.61;58.38
47434;SHT31;33184;48.774;8.918;2023-03-29T21:53:39;12.57;58.64
47434;SHT31;33184;48.774;8.918;2023-03-29T21:59:00;12.50;59.11
47434;SHT31;33184;48.774;8.918;2023-03-29T22:04:20;12.47;59.46
47434;SHT31;33184;48.774;8.918;2023-03-29T22:09:41;12.65;58.85
47434;SHT31;33184;48.774;8.918;2023-03-29T22:15:03;12.84;58.73
47434;SHT31;33184;48.774;8.918;2023-03-29T22:20:26;13.49;56.42
47434;SHT31;33184;48.774;8.918;2023-03-29T22:25:47;13.85;55.39
47434;SHT31;33184;48.774;8.918;2023-03-29T22:31:10;13.93;55.81
47434;SHT31;33184;48.774;8.918;2023-03-29T22:36:31;14.09;55.28
47434;SHT31;33184;48.774;8.918;2023-03-29T22:41:52;14.17;55.61
47434;SHT31;33184;48.774;8.918;2023-03-29T22:47:12;14.21;55.79
47434;SHT31;33184;48.774;8.918;2023-03-29T22:52:33;14.18;56.39
47434;SHT31;33184;48.774;8.918;2023-03-29T22:57:53;14.20;56.28
47434;SHT31;33184;48.774;8.918;2023-03-29T23:03:14;14.44;55.75
47434;SHT31;33184;48.774;8.918;2023-03-29T23:08:35;14.35;56.50
47434;SHT31;33184;48.774;8.918;2023-03-29T23:13:57;14.35;56.88
47434;SHT31;33184;48.774;8.918;2023-03-29T23:19:18;14.34;57.01
47434;SHT31;33184;48.774;8.918;2023-03-29T23:24:38;14.30;57.52
47434;SHT31;33184;48.774;8.918;2023-03-29T23:29:59;14.25;57.80
47434;SHT31;33184;48.774;8.918;2023-03-29T23:35:20;14.25;59.11
47434;SHT31;33184;48.774;8.918;2023-03-29T23:40:41;14.21;59.25
47434;SHT31;33184;48.774;8.918;2023-03-29T23:46:04;14.18;58.88
47434;SHT31;33184;48.774;8.918;2023-03-29T23:51:26;14.14;59.35
47434;SHT31;33184;48.774;8.918;2023-03-29T23:56:47;14.11;59.72
